createdAt,value
2022-12-07T00:01:27.833Z,8.63
2022-12-07T00:04:01.657Z,8.75
2022-12-07T00:06:29.987Z,9.23
2022-12-07T00:08:58.282Z,8.85
2022-12-07T00:11:26.981Z,9.13
2022-12-07T00:13:56.730Z,8.35
2022-12-07T00:16:28.413Z,9.03
2022-12-07T00:18:57.016Z,8.65
2022-12-07T00:21:26.712Z,8.70
2022-12-07T00:23:55.942Z,9.40
2022-12-07T00:26:25.549Z,9.57
2022-12-07T00:28:55.856Z,9.10
2022-12-07T00:31:27.530Z,8.50
2022-12-07T00:33:55.952Z,9.23
2022-12-07T00:36:27.295Z,7.72
2022-12-07T00:38:56.774Z,8.77
2022-12-07T00:41:26.886Z,8.18
2022-12-07T00:43:55.345Z,8.93
2022-12-07T00:46:24.604Z,8.32
2022-12-07T00:48:54.985Z,7.40
2022-12-07T00:51:24.979Z,9.25
2022-12-07T00:53:54.096Z,7.75
2022-12-07T00:56:24.219Z,8.70
2022-12-07T00:58:53.871Z,8.70
2022-12-07T01:01:22.268Z,9.43
2022-12-07T01:03:50.640Z,9.35
2022-12-07T01:06:21.488Z,8.68
2022-12-07T01:08:50.132Z,9.00
2022-12-07T01:11:20.903Z,9.07
2022-12-07T01:13:49.361Z,8.77
2022-12-07T01:16:18.670Z,9.30
2022-12-07T01:18:48.774Z,8.98
2022-12-07T01:21:18.731Z,9.00
2022-12-07T01:23:48.744Z,9.73
2022-12-07T01:26:18.962Z,9.57
2022-12-07T01:28:47.829Z,8.35
2022-12-07T01:31:17.916Z,9.05
2022-12-07T01:33:47.922Z,9.20
2022-12-07T01:36:17.993Z,9.05
2022-12-07T01:38:48.420Z,9.05
2022-12-07T01:41:17.502Z,9.45
2022-12-07T01:44:11.045Z,8.70
2022-12-07T01:46:39.801Z,9.48
2022-12-07T01:49:10.295Z,9.60
2022-12-07T01:51:39.946Z,9.82
2022-12-07T01:54:09.677Z,9.47
2022-12-07T01:56:38.455Z,9.10
2022-12-07T01:59:06.707Z,9.95
2022-12-07T02:01:35.019Z,8.88
2022-12-07T02:04:03.943Z,10.30
2022-12-07T02:06:32.371Z,9.27
2022-12-07T02:09:00.608Z,9.75
2022-12-07T02:11:30.250Z,9.75
2022-12-07T02:13:59.623Z,9.73
2022-12-07T02:16:33.748Z,9.85
2022-12-07T02:19:18.432Z,9.98
2022-12-07T02:21:50.179Z,9.15
2022-12-07T02:24:36.546Z,10.50
2022-12-07T02:27:35.866Z,9.77
2022-12-07T02:30:08.830Z,9.30
2022-12-07T02:32:44.707Z,9.68
2022-12-07T02:35:15.130Z,9.73
2022-12-07T02:37:45.571Z,9.98
2022-12-07T02:40:18.954Z,9.75
2022-12-07T02:42:49.826Z,9.52
2022-12-07T02:45:22.408Z,9.75
2022-12-07T02:47:53.992Z,9.77
2022-12-07T02:50:22.890Z,9.57
2022-12-07T02:52:51.209Z,9.15
2022-12-07T02:55:22.189Z,9.80
2022-12-07T02:58:04.618Z,9.52
2022-12-07T03:00:37.500Z,10.77
2022-12-07T03:03:09.071Z,9.93
2022-12-07T03:05:56.577Z,9.77
2022-12-07T03:08:31.878Z,9.80
2022-12-07T03:11:02.214Z,10.38
2022-12-07T03:13:34.459Z,9.75
2022-12-07T03:16:07.522Z,10.68
2022-12-07T03:18:38.573Z,10.00
2022-12-07T03:21:11.112Z,10.90
2022-12-07T03:23:41.170Z,10.90
2022-12-07T03:26:11.509Z,10.75
2022-12-07T03:28:43.690Z,11.38
2022-12-07T03:31:16.708Z,10.57
2022-12-07T03:33:49.909Z,10.50
2022-12-07T03:36:22.869Z,10.32
2022-12-07T03:38:54.939Z,10.32
2022-12-07T03:41:26.361Z,10.25
2022-12-07T03:43:55.904Z,10.20
2022-12-07T03:46:31.587Z,10.32
2022-12-07T03:49:05.215Z,10.30
2022-12-07T03:51:39.314Z,9.75
2022-12-07T03:54:12.858Z,10.10
2022-12-07T03:56:42.070Z,10.15
2022-12-07T03:59:10.467Z,10.35
2022-12-07T04:01:40.187Z,9.98
2022-12-07T04:04:08.488Z,10.93
2022-12-07T04:06:36.748Z,10.52
2022-12-07T04:09:05.604Z,10.52
2022-12-07T04:11:34.056Z,10.70
2022-12-07T04:14:20.599Z,10.25
2022-12-07T04:16:52.383Z,10.20
2022-12-07T04:19:22.547Z,9.90
2022-12-07T04:21:50.783Z,11.02
2022-12-07T04:24:19.632Z,10.77
2022-12-07T04:26:48.459Z,10.32
2022-12-07T04:29:17.613Z,9.88
2022-12-07T04:31:46.285Z,10.30
2022-12-07T04:34:16.917Z,10.52
2022-12-07T04:39:21.269Z,10.40
2022-12-07T04:41:49.656Z,10.27
2022-12-07T04:44:18.629Z,10.48
2022-12-07T04:46:47.242Z,10.43
2022-12-07T04:49:18.054Z,10.70
2022-12-07T04:51:46.730Z,10.68
2022-12-07T04:54:15.419Z,10.38
2022-12-07T04:56:44.198Z,11.18
2022-12-07T04:59:13.200Z,11.32
2022-12-07T05:01:41.704Z,10.98
2022-12-07T05:04:10.403Z,11.30
2022-12-07T05:06:40.025Z,10.35
2022-12-07T05:09:08.418Z,11.07
2022-12-07T05:11:42.621Z,11.05
2022-12-07T05:14:14.206Z,10.18
2022-12-07T05:16:44.108Z,9.98
2022-12-07T05:19:12.734Z,11.32
2022-12-07T05:21:42.563Z,10.63
2022-12-07T05:24:12.667Z,11.80
2022-12-07T05:26:41.175Z,10.90
2022-12-07T05:29:09.913Z,10.88
2022-12-07T05:31:38.169Z,9.77
2022-12-07T05:34:06.484Z,11.05
2022-12-07T05:36:34.819Z,10.23
2022-12-07T05:39:04.681Z,10.60
2022-12-07T05:41:50.623Z,10.65
2022-12-07T05:44:18.961Z,10.63
2022-12-07T05:46:47.204Z,10.50
2022-12-07T05:49:15.428Z,10.52
2022-12-07T05:51:44.017Z,12.00
2022-12-07T05:54:13.683Z,10.73
2022-12-07T05:56:41.986Z,11.30
2022-12-07T05:59:25.512Z,11.23
2022-12-07T06:01:54.849Z,11.68
2022-12-07T06:04:23.895Z,11.25
2022-12-07T06:06:52.290Z,12.40
2022-12-07T06:09:22.509Z,10.50
2022-12-07T06:12:08.649Z,11.43
2022-12-07T06:14:37.211Z,11.52
2022-12-07T06:17:05.682Z,11.88
2022-12-07T06:19:34.012Z,11.25
2022-12-07T06:22:02.406Z,11.55
2022-12-07T06:24:32.173Z,11.60
2022-12-07T06:27:00.413Z,11.95
2022-12-07T06:29:28.773Z,11.68
2022-12-07T06:31:57.052Z,11.20
2022-12-07T06:34:26.339Z,11.15
2022-12-07T06:36:56.092Z,11.20
2022-12-07T06:39:26.861Z,11.60
2022-12-07T06:44:24.826Z,10.85
2022-12-07T06:47:06.737Z,11.40
2022-12-07T06:49:41.675Z,10.52
2022-12-07T06:52:10.008Z,10.27
2022-12-07T06:54:38.323Z,11.02
2022-12-07T06:57:07.959Z,10.63
2022-12-07T06:59:36.296Z,13.05
2022-12-07T07:02:04.909Z,11.80
2022-12-07T07:04:33.345Z,12.90
2022-12-07T07:07:01.852Z,13.27
2022-12-07T07:09:30.155Z,12.35
2022-12-07T07:11:58.379Z,13.02
2022-12-07T07:14:28.346Z,11.43
2022-12-07T07:16:56.612Z,12.77
2022-12-07T07:19:25.243Z,12.10
2022-12-07T07:21:53.484Z,11.73
2022-12-07T07:24:22.041Z,12.80
2022-12-07T07:26:50.259Z,12.45
2022-12-07T07:29:18.537Z,12.65
2022-12-07T07:31:48.447Z,13.02
2022-12-07T07:34:16.657Z,12.77
2022-12-07T07:36:45.030Z,12.23
2022-12-07T07:39:13.757Z,12.73
2022-12-07T07:41:42.042Z,12.55
2022-12-07T07:44:11.139Z,13.05
2022-12-07T07:46:39.539Z,12.65
2022-12-07T07:49:09.233Z,12.75
2022-12-07T07:51:37.663Z,12.88
2022-12-07T07:54:06.402Z,13.65
2022-12-07T07:56:34.652Z,14.25
2022-12-07T07:59:03.203Z,13.55
2022-12-07T08:01:31.512Z,14.07
2022-12-07T08:03:59.785Z,13.02
2022-12-07T08:06:32.394Z,13.68
2022-12-07T08:09:01.254Z,12.18
2022-12-07T08:11:29.696Z,13.45
2022-12-07T08:13:58.024Z,10.40
2022-12-07T08:16:26.434Z,11.70
2022-12-07T08:18:54.709Z,13.13
2022-12-07T08:21:23.109Z,12.40
2022-12-07T08:23:52.676Z,12.18
2022-12-07T08:26:21.056Z,11.93
2022-12-07T08:28:49.369Z,12.30
2022-12-07T08:31:19.223Z,11.23
2022-12-07T08:33:48.130Z,10.73
2022-12-07T08:36:16.816Z,11.07
2022-12-07T08:39:08.033Z,11.40
2022-12-07T08:41:34.948Z,12.40
2022-12-07T08:44:03.714Z,10.63
2022-12-07T08:46:35.654Z,11.38
2022-12-07T08:49:07.143Z,11.82
2022-12-07T08:51:35.686Z,11.80
2022-12-07T08:54:07.070Z,11.20
2022-12-07T08:56:37.278Z,12.52
2022-12-07T08:59:05.972Z,12.38
2022-12-07T09:01:34.533Z,12.75
2022-12-07T09:04:03.063Z,13.30
2022-12-07T09:06:31.506Z,12.00
2022-12-07T09:09:01.257Z,10.20
2022-12-07T09:11:29.737Z,11.87
2022-12-07T09:13:59.386Z,11.85
2022-12-07T09:16:27.736Z,11.90
2022-12-07T09:18:56.213Z,13.10
2022-12-07T09:21:24.555Z,11.55
2022-12-07T09:23:52.772Z,12.60
2022-12-07T09:26:21.048Z,12.30
2022-12-07T09:28:49.474Z,12.18
2022-12-07T09:31:24.385Z,12.50
2022-12-07T09:33:57.348Z,12.10
2022-12-07T09:36:26.455Z,11.32
2022-12-07T09:38:54.738Z,10.85
2022-12-07T09:41:23.428Z,10.95
2022-12-07T09:43:52.331Z,11.45
2022-12-07T09:46:23.446Z,10.82
2022-12-07T09:48:52.275Z,9.93
2022-12-07T09:51:25.311Z,10.70
2022-12-07T09:53:55.529Z,9.70
2022-12-07T09:56:25.020Z,10.55
2022-12-07T09:59:01.701Z,9.80
2022-12-07T10:01:33.769Z,10.25
2022-12-07T10:04:09.123Z,9.85
2022-12-07T10:06:37.342Z,9.60
2022-12-07T10:09:11.874Z,10.48
2022-12-07T10:12:05.969Z,9.10
2022-12-07T10:17:42.108Z,10.37
2022-12-07T10:20:16.611Z,10.77
2022-12-07T10:22:58.623Z,8.25
2022-12-07T10:25:30.528Z,9.32
2022-12-07T10:28:15.324Z,10.13
2022-12-07T10:31:03.154Z,9.77
2022-12-07T10:33:38.312Z,10.30
2022-12-07T10:36:21.743Z,9.90
2022-12-07T10:38:51.771Z,10.10
2022-12-07T10:41:21.011Z,9.77
2022-12-07T10:43:54.028Z,9.07
2022-12-07T10:46:44.817Z,10.05
2022-12-07T10:49:47.655Z,9.10
2022-12-07T10:52:22.671Z,9.73
2022-12-07T10:54:58.643Z,9.10
2022-12-07T10:57:36.811Z,9.77
2022-12-07T11:00:12.160Z,9.05
2022-12-07T11:02:54.576Z,9.35
2022-12-07T11:05:30.047Z,6.68
2022-12-07T11:08:05.460Z,8.00
2022-12-07T11:10:41.173Z,8.55
2022-12-07T11:13:28.705Z,9.57
2022-12-07T11:16:16.435Z,8.35
2022-12-07T11:18:52.273Z,7.57
2022-12-07T11:21:26.953Z,7.95
2022-12-07T11:24:01.364Z,7.90
2022-12-07T11:26:40.043Z,8.32
2022-12-07T11:29:20.634Z,6.50
2022-12-07T11:32:00.173Z,8.30
2022-12-07T11:34:36.450Z,7.20
2022-12-07T11:37:07.981Z,7.90
2022-12-07T11:39:39.793Z,7.85
2022-12-07T11:42:12.216Z,7.82
2022-12-07T11:44:48.449Z,6.78
2022-12-07T11:47:20.357Z,6.78
2022-12-07T11:49:55.383Z,5.80
2022-12-07T11:52:30.038Z,8.00
2022-12-07T11:54:59.926Z,5.82
2022-12-07T11:57:37.751Z,7.88
2022-12-07T12:00:11.258Z,7.43
2022-12-07T12:02:43.801Z,8.00
2022-12-07T12:05:18.020Z,8.15
2022-12-07T12:10:45.273Z,8.38
2022-12-07T12:16:47.150Z,8.10
2022-12-07T12:19:26.083Z,7.55
2022-12-07T12:21:58.430Z,6.70
2022-12-07T12:24:30.277Z,8.20
2022-12-07T12:27:03.823Z,8.20
2022-12-07T12:29:35.193Z,8.40
2022-12-07T12:32:09.771Z,8.15
2022-12-07T12:34:48.533Z,8.93
2022-12-07T12:37:41.263Z,8.00
2022-12-07T12:40:50.463Z,8.35
2022-12-07T12:43:45.102Z,7.95
2022-12-07T12:46:38.847Z,8.50
2022-12-07T12:49:36.940Z,8.25
2022-12-07T12:52:51.442Z,8.88
2022-12-07T12:55:28.722Z,9.02
2022-12-07T12:58:29.781Z,9.25
2022-12-07T13:01:49.638Z,8.68
2022-12-07T13:04:30.979Z,8.45
2022-12-07T13:06:59.218Z,8.57
2022-12-07T13:09:29.920Z,9.05
2022-12-07T13:12:02.776Z,7.13
2022-12-07T13:14:58.347Z,7.95
2022-12-07T13:18:06.187Z,8.20
2022-12-07T13:20:55.258Z,8.88
2022-12-07T13:23:33.842Z,8.63
2022-12-07T13:26:06.958Z,7.90
2022-12-07T13:28:40.534Z,8.10
2022-12-07T13:31:26.983Z,8.35
2022-12-07T13:33:55.263Z,7.38
2022-12-07T13:36:25.512Z,8.25
2022-12-07T13:38:56.782Z,7.55
2022-12-07T13:41:26.201Z,7.70
2022-12-07T13:44:02.054Z,7.97
2022-12-07T13:46:42.798Z,8.07
2022-12-07T13:49:20.079Z,7.95
2022-12-07T13:51:49.028Z,8.05
2022-12-07T13:54:17.879Z,7.53
2022-12-07T13:56:50.159Z,8.13
2022-12-07T13:59:20.718Z,8.50
2022-12-07T14:04:39.172Z,8.00
2022-12-07T14:07:25.161Z,8.80
2022-12-07T14:09:58.117Z,8.68
2022-12-07T14:12:27.350Z,8.10
2022-12-07T14:14:56.647Z,7.65
2022-12-07T14:17:27.522Z,8.65
2022-12-07T14:19:57.631Z,7.85
2022-12-07T14:22:28.987Z,8.35
2022-12-07T14:25:01.879Z,8.40
2022-12-07T14:27:35.007Z,8.25
2022-12-07T14:30:03.708Z,8.00
2022-12-07T14:32:33.766Z,8.18
2022-12-07T14:35:04.673Z,8.18
2022-12-07T14:37:33.256Z,7.78
2022-12-07T14:40:01.857Z,7.43
2022-12-07T14:42:31.062Z,7.75
2022-12-07T14:45:01.085Z,7.47
2022-12-07T14:50:21.686Z,7.55
2022-12-07T14:55:41.387Z,7.90
2022-12-07T14:58:14.434Z,7.65
2022-12-07T15:00:42.926Z,7.78
2022-12-07T15:03:11.386Z,7.95
2022-12-07T15:05:41.703Z,7.55
2022-12-07T15:08:10.952Z,8.23
2022-12-07T15:10:39.820Z,8.00
2022-12-07T15:13:31.486Z,8.15
2022-12-07T15:15:59.829Z,7.90
2022-12-07T15:18:28.093Z,8.23
2022-12-07T15:20:57.898Z,8.43
2022-12-07T15:23:26.114Z,8.40
2022-12-07T15:25:54.409Z,8.77
2022-12-07T15:28:22.745Z,8.20
2022-12-07T15:30:51.079Z,8.70
2022-12-07T15:33:19.326Z,8.40
2022-12-07T15:35:47.727Z,9.10
2022-12-07T15:38:18.964Z,7.60
2022-12-07T15:40:56.144Z,8.30
2022-12-07T15:43:42.091Z,8.73
2022-12-07T15:46:10.451Z,8.77
2022-12-07T15:48:38.696Z,8.43
2022-12-07T15:51:07.799Z,8.75
2022-12-07T15:53:37.436Z,8.68
2022-12-07T15:56:08.515Z,9.23
2022-12-07T15:58:37.225Z,9.65
2022-12-07T16:01:12.436Z,9.43
2022-12-07T16:03:40.851Z,8.20
2022-12-07T16:06:09.228Z,9.00
2022-12-07T16:08:39.214Z,8.40
2022-12-07T16:11:08.329Z,8.43
2022-12-07T16:13:36.732Z,8.93
2022-12-07T16:16:06.197Z,8.82
2022-12-07T16:18:34.500Z,9.25
2022-12-07T16:21:02.925Z,9.65
2022-12-07T16:23:31.382Z,9.32
2022-12-07T16:26:07.924Z,9.23
2022-12-07T16:28:36.442Z,9.35
2022-12-07T16:31:10.817Z,9.50
2022-12-07T16:33:40.230Z,9.93
2022-12-07T16:36:10.274Z,9.13
2022-12-07T16:38:39.202Z,9.68
2022-12-07T16:41:09.276Z,9.15
2022-12-07T16:43:38.231Z,8.98
2022-12-07T16:46:07.079Z,9.00
2022-12-07T16:48:38.072Z,9.93
2022-12-07T16:51:07.457Z,9.65
2022-12-07T16:53:35.698Z,9.10
2022-12-07T16:56:04.193Z,9.68
2022-12-07T16:58:34.149Z,9.30
2022-12-07T17:01:11.190Z,9.27
2022-12-07T17:03:39.624Z,9.18
2022-12-07T17:06:15.318Z,9.30
2022-12-07T17:08:43.872Z,9.20
2022-12-07T17:11:13.650Z,9.18
2022-12-07T17:14:00.677Z,10.13
2022-12-07T17:16:29.845Z,8.63
2022-12-07T17:18:58.696Z,8.55
2022-12-07T17:21:27.292Z,8.73
2022-12-07T17:23:55.608Z,8.75
2022-12-07T17:26:29.469Z,8.95
2022-12-07T17:29:04.252Z,9.05
2022-12-07T17:34:02.129Z,9.20
2022-12-07T17:36:31.749Z,8.45
2022-12-07T17:39:00.223Z,8.90
2022-12-07T17:41:47.620Z,9.32
2022-12-07T17:44:19.532Z,9.13
2022-12-07T17:46:49.220Z,9.20
2022-12-07T17:49:17.559Z,9.33
2022-12-07T17:52:03.828Z,9.88
2022-12-07T17:54:32.578Z,9.90
2022-12-07T17:57:01.238Z,11.60
2022-12-07T17:59:31.338Z,10.93
2022-12-07T18:02:00.073Z,11.98
2022-12-07T18:04:28.889Z,12.70
2022-12-07T18:06:57.885Z,11.80
2022-12-07T18:09:26.483Z,12.50
2022-12-07T18:11:55.072Z,13.35
2022-12-07T18:14:23.676Z,12.07
2022-12-07T18:16:53.420Z,10.95
2022-12-07T18:19:21.777Z,10.20
2022-12-07T18:21:50.155Z,9.85
2022-12-07T18:24:19.125Z,10.07
2022-12-07T18:26:48.263Z,10.18
2022-12-07T18:29:17.773Z,9.73
2022-12-07T18:31:47.828Z,9.68
2022-12-07T18:34:20.652Z,9.50
2022-12-07T18:36:51.357Z,9.63
2022-12-07T18:39:20.303Z,9.50
2022-12-07T18:41:48.871Z,9.50
2022-12-07T18:44:17.703Z,9.45
2022-12-07T18:46:46.204Z,9.35
2022-12-07T18:49:15.002Z,9.95
2022-12-07T18:51:45.441Z,9.32
2022-12-07T18:54:13.625Z,10.45
2022-12-07T18:56:42.015Z,9.77
2022-12-07T18:59:32.127Z,10.60
2022-12-07T19:02:00.493Z,10.25
2022-12-07T19:04:28.791Z,10.48
2022-12-07T19:06:58.350Z,10.15
2022-12-07T19:09:26.617Z,11.43
2022-12-07T19:11:56.513Z,10.30
2022-12-07T19:14:27.028Z,10.60
2022-12-07T19:16:56.854Z,9.80
2022-12-07T19:19:31.043Z,9.23
2022-12-07T19:22:00.821Z,9.40
2022-12-07T19:24:29.416Z,9.75
2022-12-07T19:26:57.794Z,9.50
2022-12-07T19:29:28.065Z,9.80
2022-12-07T19:31:56.480Z,10.90
2022-12-07T19:34:24.979Z,9.98
2022-12-07T19:36:53.269Z,9.57
2022-12-07T19:39:23.183Z,9.50
2022-12-07T19:41:51.471Z,9.95
2022-12-07T19:44:21.951Z,9.63
2022-12-07T19:46:51.249Z,10.65
2022-12-07T19:49:20.311Z,10.00
2022-12-07T19:51:50.747Z,10.10
2022-12-07T19:54:21.228Z,10.68
2022-12-07T19:56:51.784Z,10.70
2022-12-07T19:59:21.768Z,10.45
2022-12-07T20:01:50.350Z,10.10
2022-12-07T20:04:20.672Z,9.68
2022-12-07T20:06:49.929Z,10.50
2022-12-07T20:09:18.730Z,11.13
2022-12-07T20:12:04.628Z,10.82
2022-12-07T20:14:34.504Z,11.50
2022-12-07T20:17:03.404Z,11.40
2022-12-07T20:19:32.200Z,12.15
2022-12-07T20:22:00.520Z,11.75
2022-12-07T20:24:28.790Z,11.85
2022-12-07T20:26:56.997Z,12.90
2022-12-07T20:29:26.176Z,12.52
2022-12-07T20:31:56.214Z,12.02
2022-12-07T20:34:25.285Z,12.98
2022-12-07T20:36:54.237Z,12.82
2022-12-07T20:39:23.473Z,11.70
2022-12-07T20:42:09.508Z,12.27
2022-12-07T20:44:37.780Z,12.95
2022-12-07T20:47:07.717Z,14.20
2022-12-07T20:49:36.338Z,13.18
2022-12-07T20:52:05.245Z,13.32
2022-12-07T20:54:33.738Z,13.63
2022-12-07T20:57:01.934Z,13.43
2022-12-07T20:59:30.143Z,14.95
2022-12-07T21:01:58.516Z,14.40
2022-12-07T21:04:28.237Z,14.07
2022-12-07T21:06:56.426Z,13.60
2022-12-07T21:09:26.967Z,12.60
2022-12-07T21:14:23.830Z,12.38
2022-12-07T21:16:52.094Z,13.15
2022-12-07T21:19:20.314Z,12.10
2022-12-07T21:21:49.904Z,12.95
2022-12-07T21:24:18.118Z,13.15
2022-12-07T21:26:46.368Z,12.85
2022-12-07T21:29:14.597Z,12.80
2022-12-07T21:31:42.960Z,13.82
2022-12-07T21:34:11.239Z,12.68
2022-12-07T21:36:39.668Z,12.88
2022-12-07T21:39:09.223Z,12.88
2022-12-07T21:41:37.501Z,13.63
2022-12-07T21:44:07.820Z,14.98
2022-12-07T21:46:36.279Z,14.20
2022-12-07T21:49:06.820Z,13.55
2022-12-07T21:51:35.850Z,12.82
2022-12-07T21:54:05.417Z,13.18
2022-12-07T21:56:37.235Z,12.85
2022-12-07T21:59:06.973Z,11.80
2022-12-07T22:01:38.088Z,13.70
2022-12-07T22:04:06.834Z,12.73
2022-12-07T22:06:35.912Z,13.02
2022-12-07T22:09:06.033Z,13.32
2022-12-07T22:11:35.651Z,12.60
2022-12-07T22:14:22.689Z,12.43
2022-12-07T22:16:50.947Z,12.43
2022-12-07T22:19:19.468Z,12.68
2022-12-07T22:21:47.773Z,13.35
2022-12-07T22:24:16.341Z,13.15
2022-12-07T22:26:46.072Z,13.00
2022-12-07T22:29:14.340Z,12.70
2022-12-07T22:31:42.676Z,12.88
2022-12-07T22:34:16.179Z,12.55
2022-12-07T22:36:44.886Z,12.45
2022-12-07T22:39:13.450Z,12.63
2022-12-07T22:41:41.743Z,13.00
2022-12-07T22:44:11.703Z,13.98
2022-12-07T22:46:40.611Z,14.25
2022-12-07T22:49:08.983Z,13.88
2022-12-07T22:51:39.060Z,13.20
2022-12-07T22:54:09.308Z,13.70
2022-12-07T22:56:39.041Z,13.77
2022-12-07T22:59:08.051Z,14.33
2022-12-07T23:01:38.280Z,13.88
2022-12-07T23:04:06.837Z,14.30
2022-12-07T23:06:37.273Z,14.93
2022-12-07T23:09:07.486Z,13.98
2022-12-07T23:11:56.485Z,14.25
2022-12-07T23:14:26.851Z,13.73
2022-12-07T23:16:56.431Z,13.95
2022-12-07T23:19:24.725Z,13.82
2022-12-07T23:21:53.047Z,13.70
2022-12-07T23:24:21.279Z,13.57
2022-12-07T23:26:49.888Z,12.88
2022-12-07T23:29:18.497Z,12.98
2022-12-07T23:31:47.051Z,13.85
2022-12-07T23:34:16.818Z,13.27
2022-12-07T23:36:45.369Z,13.95
2022-12-07T23:39:13.863Z,13.93
2022-12-07T23:41:42.112Z,13.35
2022-12-07T23:44:12.938Z,14.00
2022-12-07T23:46:41.242Z,13.88
2022-12-07T23:49:09.616Z,13.68
2022-12-07T23:51:39.376Z,14.45
2022-12-07T23:54:07.727Z,13.73
2022-12-07T23:56:36.052Z,14.20
2022-12-07T23:59:05.179Z,13.65
